CheckWX is a tool to help pilots better visualize weather data.  It is not intended as a substitute for an official pre-flight weather briefing.

10:09:57 UTC

CWSA METAR
Sable Island Airport
Canada
Current

53 mins ago

CWSA 240917Z AUTO VRB02KT 6SM BR CLR 03/03 A2993 RMK SLP138
Observed
May-24 @ 09:17 UTC
Wind
  • Variable at 2 KTS
Visibility
6 SM
Flight Rules
VFR
Conditions
Mist
Cloud Levels
  • Clear skies
Temperature
C / 37°F
Dewpoint
C / 37°F
Humidity
100%
Altimeter
29.93" Hg
Pressure
1013.52 hPa
Previous

1 hour ago

CWSA 240900Z AUTO 00000KT 3SM BR CLR 03/02 A2994 RMK SLP139
Observed
May-24 @ 09:00 UTC
Visibility
3 SM
Flight Rules
MVFR
Conditions
Mist
Cloud Levels
  • Clear skies
Temperature
C / 37°F
Dewpoint
C / 36°F
Humidity
93%
Altimeter
29.94" Hg
Pressure
1013.92 hPa
Previous

1 hour ago

CWSA 240849Z AUTO 24002KT 5SM BR CLR 03/03 A2994 RMK SLP140
Observed
May-24 @ 08:49 UTC
Wind
  • 240° at 2 KTS
Visibility
5 SM
Flight Rules
MVFR
Conditions
Mist
Cloud Levels
  • Clear skies
Temperature
C / 37°F
Dewpoint
C / 37°F
Humidity
100%
Altimeter
29.94" Hg
Pressure
1013.92 hPa